createdAt,value
2019-05-19T00:01:59.034Z,11.60
2019-05-19T00:04:27.481Z,11.60
2019-05-19T00:06:55.969Z,11.50
2019-05-19T00:09:24.417Z,11.40
2019-05-19T00:11:52.928Z,11.50
2019-05-19T00:14:21.463Z,11.50
2019-05-19T00:16:50.453Z,11.50
2019-05-19T00:19:26.228Z,11.50
2019-05-19T00:21:49.621Z,11.50
2019-05-19T00:24:18.576Z,11.60
2019-05-19T00:26:47.073Z,11.60
2019-05-19T00:29:15.918Z,11.50
2019-05-19T00:31:44.870Z,11.50
2019-05-19T00:34:13.310Z,11.60
2019-05-19T00:36:41.898Z,11.50
2019-05-19T00:39:10.937Z,11.50
2019-05-19T00:41:39.949Z,11.60
2019-05-19T00:44:08.408Z,11.50
2019-05-19T00:46:36.916Z,11.50
2019-05-19T00:49:05.380Z,11.60
2019-05-19T00:51:34.581Z,11.60
2019-05-19T00:54:03.499Z,11.60
2019-05-19T00:56:33.193Z,11.60
2019-05-19T00:59:02.947Z,11.60
2019-05-19T01:01:31.551Z,11.60
2019-05-19T01:03:59.988Z,11.60
2019-05-19T01:06:28.477Z,11.60
2019-05-19T01:08:57.354Z,11.50
2019-05-19T01:11:25.854Z,11.50
2019-05-19T01:13:54.345Z,11.50
2019-05-19T01:16:23.145Z,11.50
2019-05-19T01:18:51.658Z,11.50
2019-05-19T01:21:20.650Z,11.60
2019-05-19T01:23:49.221Z,11.60
2019-05-19T01:26:17.670Z,11.60
2019-05-19T01:28:46.584Z,11.60
2019-05-19T01:31:15.325Z,11.60
2019-05-19T01:33:44.430Z,11.60
2019-05-19T01:36:12.889Z,11.60
2019-05-19T01:38:41.763Z,11.70
2019-05-19T01:41:10.194Z,11.70
2019-05-19T01:43:38.691Z,11.80
2019-05-19T01:46:07.146Z,11.80
2019-05-19T01:48:35.633Z,11.90
2019-05-19T01:51:04.074Z,12.00
2019-05-19T01:53:32.587Z,12.10
2019-05-19T01:56:01.116Z,12.10
2019-05-19T01:58:29.993Z,12.10
2019-05-19T02:00:58.422Z,12.20
2019-05-19T02:03:26.927Z,12.20
2019-05-19T02:05:55.790Z,12.20
2019-05-19T02:08:24.280Z,12.20
2019-05-19T02:10:52.725Z,12.20
2019-05-19T02:13:21.589Z,12.20
2019-05-19T02:15:50.490Z,12.30
2019-05-19T02:18:18.974Z,12.30
2019-05-19T02:20:47.476Z,12.40
2019-05-19T02:23:16.538Z,12.30
2019-05-19T02:25:44.974Z,12.30
2019-05-19T02:28:13.470Z,12.20
2019-05-19T02:30:41.916Z,12.10
2019-05-19T02:33:10.414Z,12.00
2019-05-19T02:35:38.850Z,11.90
2019-05-19T02:38:07.349Z,11.90
2019-05-19T02:40:38.780Z,11.80
2019-05-19T02:43:08.189Z,11.70
2019-05-19T02:45:38.336Z,11.60
2019-05-19T02:48:07.725Z,11.60
2019-05-19T02:57:50.183Z,11.40
2019-05-19T03:00:22.901Z,11.30
2019-05-19T03:02:51.757Z,11.30
2019-05-19T03:05:20.703Z,11.20
2019-05-19T03:07:49.034Z,11.20
2019-05-19T03:10:17.568Z,11.20
2019-05-19T03:12:45.998Z,11.10
2019-05-19T03:15:14.494Z,11.10
2019-05-19T03:17:42.962Z,11.10
2019-05-19T03:20:11.634Z,11.00
2019-05-19T03:22:40.037Z,11.00
2019-05-19T03:25:08.532Z,11.10
2019-05-19T03:27:36.969Z,11.20
2019-05-19T03:30:23.657Z,11.20
2019-05-19T03:32:55.346Z,11.20
2019-05-19T03:35:24.373Z,11.20
2019-05-19T03:37:52.805Z,11.20
2019-05-19T03:40:21.300Z,11.10
2019-05-19T03:42:50.637Z,11.10
2019-05-19T03:45:19.174Z,11.10
2019-05-19T03:47:47.602Z,11.10
2019-05-19T03:50:16.104Z,11.10
2019-05-19T03:52:44.555Z,11.20
2019-05-19T03:55:13.222Z,11.10
2019-05-19T03:57:41.723Z,11.20
2019-05-19T04:00:11.430Z,11.20
2019-05-19T04:02:39.972Z,11.30
2019-05-19T04:05:08.999Z,11.30
2019-05-19T04:07:37.442Z,11.40
2019-05-19T04:10:06.273Z,11.50
2019-05-19T04:12:34.713Z,11.40
2019-05-19T04:15:03.329Z,11.50
2019-05-19T04:17:31.770Z,11.40
2019-05-19T04:20:00.275Z,11.40
2019-05-19T04:22:28.866Z,11.30
2019-05-19T04:24:57.325Z,11.20
2019-05-19T04:27:25.778Z,11.20
2019-05-19T04:29:54.269Z,11.10
2019-05-19T04:32:22.752Z,11.10
2019-05-19T04:34:51.330Z,11.10
2019-05-19T04:37:20.257Z,11.10
2019-05-19T04:39:48.661Z,11.10
2019-05-19T04:42:17.123Z,11.00
2019-05-19T04:44:45.625Z,11.00
2019-05-19T04:47:14.058Z,11.00
2019-05-19T04:49:42.486Z,11.00
2019-05-19T04:52:11.048Z,11.00
2019-05-19T04:54:39.903Z,11.10
2019-05-19T04:57:08.407Z,11.10
2019-05-19T04:59:36.853Z,11.20
2019-05-19T05:02:05.434Z,11.20
2019-05-19T05:04:33.883Z,11.30
2019-05-19T05:07:02.386Z,11.40
2019-05-19T05:09:30.825Z,11.50
2019-05-19T05:11:59.320Z,11.50
2019-05-19T05:14:27.764Z,11.60
2019-05-19T05:16:56.964Z,11.70
2019-05-19T05:19:25.442Z,11.70
2019-05-19T05:21:54.033Z,11.80
2019-05-19T05:24:22.528Z,11.80
2019-05-19T05:26:51.020Z,11.90
2019-05-19T05:29:19.474Z,11.90
2019-05-19T05:31:48.430Z,12.00
2019-05-19T05:34:16.895Z,12.10
2019-05-19T05:36:45.369Z,12.20
2019-05-19T05:39:13.721Z,12.20
2019-05-19T05:41:42.216Z,12.20
2019-05-19T05:44:10.778Z,12.20
2019-05-19T05:46:39.342Z,12.30
2019-05-19T05:49:07.684Z,12.40
2019-05-19T05:51:36.166Z,12.40
2019-05-19T05:54:04.605Z,12.50
2019-05-19T05:56:33.095Z,12.60
2019-05-19T05:59:01.521Z,12.60
2019-05-19T06:01:30.021Z,12.60
2019-05-19T06:03:58.565Z,12.70
2019-05-19T06:06:27.142Z,12.80
2019-05-19T06:08:55.999Z,12.80
2019-05-19T06:11:24.953Z,12.80
2019-05-19T06:13:53.413Z,12.90
2019-05-19T06:16:21.918Z,12.90
2019-05-19T06:18:50.356Z,13.00
2019-05-19T06:21:18.857Z,13.20
2019-05-19T06:23:47.354Z,13.20
2019-05-19T06:26:15.869Z,13.30
2019-05-19T06:28:44.308Z,13.40
2019-05-19T06:31:12.796Z,13.50
2019-05-19T06:33:41.229Z,13.60
2019-05-19T06:36:10.135Z,13.60
2019-05-19T06:38:38.703Z,13.70
2019-05-19T06:41:07.297Z,13.80
2019-05-19T06:43:35.824Z,14.00
2019-05-19T06:46:04.798Z,14.10
2019-05-19T06:48:33.289Z,14.20
2019-05-19T06:51:19.729Z,14.40
2019-05-19T06:53:48.161Z,14.60
2019-05-19T06:56:16.506Z,14.80
2019-05-19T06:58:44.897Z,15.10
2019-05-19T07:01:13.352Z,15.40
2019-05-19T07:03:41.856Z,15.80
2019-05-19T07:06:10.710Z,16.00
2019-05-19T07:08:39.666Z,16.10
2019-05-19T07:11:08.550Z,16.10
2019-05-19T07:13:37.058Z,16.10
2019-05-19T07:16:05.511Z,16.20
2019-05-19T07:18:34.092Z,16.30
2019-05-19T07:21:02.990Z,16.50
2019-05-19T07:23:31.476Z,16.50
2019-05-19T07:25:59.922Z,16.60
2019-05-19T07:28:28.505Z,16.70
2019-05-19T07:30:56.955Z,16.80
2019-05-19T07:33:25.458Z,16.90
2019-05-19T07:35:53.890Z,17.00
2019-05-19T07:38:22.446Z,17.00
2019-05-19T07:40:50.882Z,17.00
2019-05-19T07:43:19.437Z,16.90
2019-05-19T07:45:47.945Z,17.00
2019-05-19T07:48:16.434Z,17.00
2019-05-19T07:50:44.878Z,16.90
2019-05-19T07:53:13.392Z,17.00
2019-05-19T07:55:41.722Z,17.00
2019-05-19T07:58:10.205Z,17.10
2019-05-19T08:00:38.724Z,17.10
2019-05-19T08:03:07.245Z,17.20
2019-05-19T08:05:35.740Z,17.30
2019-05-19T08:08:04.259Z,17.40
2019-05-19T08:10:32.695Z,17.50
2019-05-19T08:13:01.592Z,17.50
2019-05-19T08:15:30.044Z,17.50
2019-05-19T08:17:58.517Z,17.50
2019-05-19T08:20:26.944Z,17.60
2019-05-19T08:22:55.526Z,17.60
2019-05-19T08:25:24.008Z,17.60
2019-05-19T08:27:52.540Z,17.70
2019-05-19T08:30:20.974Z,17.70
2019-05-19T08:32:50.058Z,17.70
2019-05-19T08:35:18.517Z,17.80
2019-05-19T08:37:47.004Z,17.80
2019-05-19T08:40:15.431Z,17.90
2019-05-19T08:42:44.290Z,18.00
2019-05-19T08:45:14.477Z,18.10
2019-05-19T08:47:42.919Z,18.10
2019-05-19T08:50:11.523Z,18.10
2019-05-19T08:52:39.951Z,18.10
2019-05-19T08:55:09.702Z,18.00
2019-05-19T08:57:38.133Z,18.00
2019-05-19T09:00:07.216Z,17.90
2019-05-19T09:02:35.643Z,17.90
2019-05-19T09:05:04.933Z,17.90
2019-05-19T09:07:33.425Z,17.90
2019-05-19T09:10:02.262Z,17.90
2019-05-19T09:12:31.175Z,17.90
2019-05-19T09:15:00.044Z,18.00
2019-05-19T09:17:28.368Z,18.00
2019-05-19T09:19:56.870Z,18.10
2019-05-19T09:22:25.295Z,18.20
2019-05-19T09:24:53.839Z,18.10
2019-05-19T09:27:22.320Z,18.20
2019-05-19T09:29:50.809Z,18.20
2019-05-19T09:32:19.182Z,18.20
2019-05-19T09:34:47.675Z,18.10
2019-05-19T09:37:16.098Z,18.10
2019-05-19T09:39:44.576Z,18.10
2019-05-19T09:42:13.005Z,18.20
2019-05-19T09:44:41.769Z,18.20
2019-05-19T09:47:10.312Z,18.20
2019-05-19T09:49:38.799Z,18.20
2019-05-19T09:52:08.225Z,18.20
2019-05-19T09:54:44.826Z,18.20
2019-05-19T09:57:07.043Z,18.10
2019-05-19T09:59:35.534Z,18.20
2019-05-19T10:02:03.960Z,18.20
2019-05-19T10:04:32.437Z,18.20
2019-05-19T10:07:00.994Z,18.20
2019-05-19T10:09:46.522Z,18.20
2019-05-19T10:12:15.361Z,18.20
2019-05-19T10:14:43.858Z,18.20
2019-05-19T10:17:12.292Z,18.30
2019-05-19T10:19:40.983Z,18.30
2019-05-19T10:22:09.464Z,18.30
2019-05-19T10:24:38.402Z,18.30
2019-05-19T10:27:06.866Z,18.30
2019-05-19T10:29:35.285Z,18.20
2019-05-19T10:32:03.768Z,18.20
2019-05-19T10:34:32.193Z,18.10
2019-05-19T10:37:00.689Z,18.00
2019-05-19T10:39:29.613Z,18.00
2019-05-19T10:41:58.106Z,18.00
2019-05-19T10:44:26.530Z,18.00
2019-05-19T10:46:55.388Z,17.90
2019-05-19T10:49:23.819Z,18.00
2019-05-19T10:51:52.316Z,18.00
2019-05-19T10:54:20.840Z,17.90
2019-05-19T10:56:50.119Z,17.90
2019-05-19T10:59:18.552Z,17.80
2019-05-19T11:01:47.028Z,17.80
2019-05-19T11:04:15.454Z,17.80
2019-05-19T11:06:43.947Z,17.80
2019-05-19T11:09:12.381Z,17.90
2019-05-19T11:11:40.859Z,17.90
2019-05-19T11:14:09.277Z,18.10
2019-05-19T11:16:37.836Z,18.10
2019-05-19T11:19:06.261Z,18.10
2019-05-19T11:21:34.747Z,18.20
2019-05-19T11:24:03.241Z,18.20
2019-05-19T11:26:31.777Z,18.30
2019-05-19T11:29:00.206Z,18.40
2019-05-19T11:31:43.741Z,18.60
2019-05-19T11:34:12.616Z,18.70
2019-05-19T11:36:41.117Z,18.80
2019-05-19T11:39:10.396Z,18.80
2019-05-19T11:41:38.881Z,18.80
2019-05-19T11:44:07.301Z,18.70
2019-05-19T11:46:35.812Z,18.60
2019-05-19T11:49:04.257Z,18.60
2019-05-19T11:51:32.742Z,18.60
2019-05-19T11:54:01.161Z,18.60
2019-05-19T11:56:29.653Z,18.70
2019-05-19T11:58:58.084Z,18.80
2019-05-19T12:01:27.050Z,18.80
2019-05-19T12:03:56.037Z,18.80
2019-05-19T12:06:38.069Z,18.70
2019-05-19T12:08:54.764Z,18.60
2019-05-19T12:11:23.326Z,18.70
2019-05-19T12:13:51.742Z,18.70
2019-05-19T12:16:20.221Z,18.80
2019-05-19T12:18:48.653Z,18.90
2019-05-19T12:21:17.072Z,18.80
2019-05-19T12:23:45.463Z,18.80
2019-05-19T12:26:22.631Z,18.80
2019-05-19T12:28:44.614Z,18.50
2019-05-19T12:31:13.037Z,18.90
2019-05-19T12:33:51.554Z,18.90
2019-05-19T12:36:12.126Z,18.80
2019-05-19T12:38:40.969Z,18.80
2019-05-19T12:41:09.405Z,18.80
2019-05-19T12:43:37.898Z,18.80
2019-05-19T12:46:16.130Z,18.90
2019-05-19T12:48:37.458Z,18.90
2019-05-19T12:51:05.881Z,18.90
2019-05-19T12:53:34.362Z,18.90
2019-05-19T12:56:02.802Z,19.00
2019-05-19T12:58:31.299Z,19.00
2019-05-19T13:00:59.725Z,18.90
2019-05-19T13:03:28.219Z,19.00
2019-05-19T13:05:56.687Z,19.00
2019-05-19T13:08:25.178Z,18.90
2019-05-19T13:10:53.592Z,18.90
2019-05-19T13:13:22.077Z,18.90
2019-05-19T13:15:50.494Z,18.90
2019-05-19T13:18:18.972Z,18.90
2019-05-19T13:20:47.397Z,18.80
2019-05-19T13:23:16.289Z,18.80
2019-05-19T13:25:44.796Z,18.70
2019-05-19T13:28:13.276Z,18.70
2019-05-19T13:30:43.592Z,18.70
2019-05-19T13:33:11.982Z,18.70
2019-05-19T13:35:40.412Z,18.70
2019-05-19T13:38:08.888Z,18.70
2019-05-19T13:40:37.772Z,18.70
2019-05-19T13:43:06.259Z,18.70
2019-05-19T13:45:34.676Z,18.80
2019-05-19T13:48:03.157Z,18.80
2019-05-19T13:50:31.584Z,18.80
2019-05-19T13:53:00.069Z,18.70
2019-05-19T13:55:28.505Z,18.70
2019-05-19T13:57:57.339Z,18.60
2019-05-19T14:00:26.188Z,18.50
2019-05-19T14:02:54.573Z,18.50
2019-05-19T14:05:23.003Z,18.50
2019-05-19T14:07:51.480Z,18.40
2019-05-19T14:10:19.908Z,18.50
2019-05-19T14:12:48.352Z,18.40
2019-05-19T14:15:16.846Z,18.50
2019-05-19T14:17:45.692Z,18.50
2019-05-19T14:20:14.573Z,18.40
2019-05-19T14:22:43.005Z,18.40
2019-05-19T14:25:11.591Z,18.40
2019-05-19T14:27:40.571Z,18.50
2019-05-19T14:30:10.632Z,18.50
2019-05-19T14:32:39.665Z,18.40
2019-05-19T14:35:08.176Z,18.40
2019-05-19T14:37:36.588Z,18.40
2019-05-19T14:40:05.525Z,18.30
2019-05-19T14:42:52.808Z,18.20
2019-05-19T14:45:21.297Z,18.10
2019-05-19T14:47:49.731Z,18.00
2019-05-19T14:50:18.310Z,17.90
2019-05-19T14:52:46.793Z,17.90
2019-05-19T14:55:15.336Z,17.80
2019-05-19T14:57:45.347Z,17.60
2019-05-19T15:00:14.492Z,17.50
2019-05-19T15:02:42.905Z,17.70
2019-05-19T15:05:12.100Z,17.30
2019-05-19T15:07:40.533Z,17.30
2019-05-19T15:10:09.397Z,17.30
2019-05-19T15:12:37.813Z,17.30
2019-05-19T15:15:06.589Z,17.20
2019-05-19T15:17:35.042Z,17.10
2019-05-19T15:20:03.847Z,17.10
2019-05-19T15:22:32.265Z,17.00
2019-05-19T15:25:00.775Z,16.80
2019-05-19T15:27:29.274Z,16.80
2019-05-19T15:30:11.830Z,16.80
2019-05-19T15:32:29.083Z,16.70
2019-05-19T15:34:57.993Z,16.60
2019-05-19T15:37:26.416Z,16.50
2019-05-19T15:39:54.893Z,16.50
2019-05-19T15:42:23.325Z,16.50
2019-05-19T15:45:00.808Z,16.40
2019-05-19T15:47:29.292Z,16.40
2019-05-19T15:49:57.789Z,16.40
2019-05-19T15:52:27.390Z,16.40
2019-05-19T15:54:55.853Z,16.40
2019-05-19T15:57:24.697Z,16.40
2019-05-19T15:59:53.189Z,16.40
2019-05-19T16:02:21.664Z,16.40
2019-05-19T16:04:50.578Z,16.30
2019-05-19T16:07:18.941Z,16.30
2019-05-19T16:09:48.125Z,16.30
2019-05-19T16:12:16.572Z,16.20
2019-05-19T16:14:45.428Z,16.10
2019-05-19T16:17:13.848Z,16.10
2019-05-19T16:19:42.277Z,16.00
2019-05-19T16:22:10.760Z,16.10
2019-05-19T16:24:39.118Z,16.00
2019-05-19T16:27:08.181Z,16.00
2019-05-19T16:29:36.537Z,16.10
2019-05-19T16:32:05.077Z,16.00
2019-05-19T16:34:33.524Z,16.00
2019-05-19T16:37:02.456Z,15.90
2019-05-19T16:39:30.901Z,15.90
2019-05-19T16:41:59.484Z,15.80
2019-05-19T16:44:27.924Z,15.70
2019-05-19T16:46:56.881Z,15.70
2019-05-19T16:49:25.304Z,15.70
2019-05-19T16:51:53.809Z,15.70
2019-05-19T16:54:27.409Z,15.70
2019-05-19T16:56:55.908Z,15.60
2019-05-19T16:59:24.232Z,15.70
2019-05-19T17:01:52.738Z,15.60
2019-05-19T17:04:21.061Z,15.60
2019-05-19T17:06:49.557Z,15.50
2019-05-19T17:09:17.997Z,15.50
2019-05-19T17:11:46.492Z,15.50
2019-05-19T17:14:14.930Z,15.40
2019-05-19T17:16:43.799Z,15.40
2019-05-19T17:19:12.253Z,15.40
2019-05-19T17:21:40.750Z,15.30
2019-05-19T17:24:09.204Z,15.30
2019-05-19T17:26:41.012Z,15.20
2019-05-19T17:29:22.464Z,15.20
2019-05-19T17:32:21.295Z,15.20
2019-05-19T17:35:47.211Z,15.20
2019-05-19T17:38:17.104Z,15.20
2019-05-19T17:40:55.629Z,15.10
2019-05-19T17:43:53.157Z,15.10
2019-05-19T17:46:41.409Z,15.20
2019-05-19T17:49:09.861Z,15.20
2019-05-19T17:51:39.287Z,15.20
2019-05-19T17:54:09.633Z,15.20
2019-05-19T17:56:49.066Z,15.10
2019-05-19T17:59:27.537Z,15.20
2019-05-19T18:02:11.583Z,15.20
2019-05-19T18:05:11.064Z,15.20
2019-05-19T18:07:58.747Z,15.20
2019-05-19T18:10:40.151Z,15.10
2019-05-19T18:13:10.688Z,15.10
2019-05-19T18:15:41.288Z,15.10
2019-05-19T18:18:12.765Z,15.00
2019-05-19T18:20:46.937Z,15.10
2019-05-19T18:23:22.962Z,15.00
2019-05-19T18:25:57.916Z,15.00
2019-05-19T18:28:27.154Z,15.00
2019-05-19T18:31:17.117Z,15.00
2019-05-19T18:33:47.670Z,14.90
2019-05-19T18:36:17.067Z,14.90
2019-05-19T18:38:46.289Z,14.90
2019-05-19T18:41:20.869Z,14.90
2019-05-19T18:43:58.156Z,14.90
2019-05-19T18:46:29.939Z,14.80
2019-05-19T18:49:32.122Z,14.80
2019-05-19T18:52:02.149Z,14.80
2019-05-19T18:54:49.068Z,14.80
2019-05-19T18:57:18.115Z,14.80
2019-05-19T18:59:49.640Z,14.80
2019-05-19T19:02:35.900Z,14.70
2019-05-19T19:05:09.230Z,14.70
2019-05-19T19:08:01.444Z,14.70
2019-05-19T19:10:34.404Z,14.70
2019-05-19T19:13:08.720Z,14.70
2019-05-19T19:15:41.649Z,14.70
2019-05-19T19:18:13.425Z,14.70
2019-05-19T19:20:42.475Z,14.70
2019-05-19T19:23:15.452Z,14.70
2019-05-19T19:26:03.472Z,14.70
2019-05-19T19:28:36.788Z,14.70
2019-05-19T19:31:08.041Z,14.60
2019-05-19T19:33:39.426Z,14.70
2019-05-19T19:36:07.965Z,14.60
2019-05-19T19:38:44.432Z,14.70
2019-05-19T19:41:13.036Z,14.60
2019-05-19T19:43:50.490Z,14.60
2019-05-19T19:46:22.262Z,14.70
2019-05-19T19:48:53.365Z,14.60
2019-05-19T19:51:30.315Z,14.60
2019-05-19T19:54:08.196Z,14.60
2019-05-19T19:56:43.325Z,14.60
2019-05-19T19:59:12.363Z,14.60
2019-05-19T20:01:46.464Z,14.60
2019-05-19T20:04:30.636Z,14.50
2019-05-19T20:07:01.824Z,14.50
2019-05-19T20:09:30.745Z,14.50
2019-05-19T20:11:59.632Z,14.50
2019-05-19T20:14:28.132Z,14.50
2019-05-19T20:16:56.564Z,14.50
2019-05-19T20:19:25.363Z,14.50
2019-05-19T20:21:54.252Z,14.50
2019-05-19T20:24:23.152Z,14.50
2019-05-19T20:26:59.016Z,14.40
2019-05-19T20:29:31.945Z,14.50
2019-05-19T20:32:00.796Z,14.50
2019-05-19T20:34:29.282Z,14.50
2019-05-19T20:36:57.623Z,14.50
2019-05-19T20:39:28.007Z,14.40
2019-05-19T20:42:10.441Z,14.50
2019-05-19T20:44:40.065Z,14.40
2019-05-19T20:47:12.121Z,14.40
2019-05-19T20:49:41.892Z,14.40
2019-05-19T20:52:17.417Z,14.40
2019-05-19T20:54:46.374Z,14.30
2019-05-19T20:57:15.640Z,14.30
2019-05-19T20:59:58.089Z,14.30
2019-05-19T21:02:15.780Z,14.30
2019-05-19T21:04:47.975Z,14.30
2019-05-19T21:07:19.717Z,14.30
2019-05-19T21:09:58.957Z,14.20
2019-05-19T21:12:27.489Z,14.20
2019-05-19T21:14:56.052Z,14.20
2019-05-19T21:17:24.509Z,14.20
2019-05-19T21:19:53.530Z,14.20
2019-05-19T21:22:22.433Z,14.20
2019-05-19T21:24:52.133Z,14.20
2019-05-19T21:27:23.138Z,14.20
2019-05-19T21:30:03.092Z,14.20
2019-05-19T21:32:34.132Z,14.20
2019-05-19T21:35:08.731Z,14.20
2019-05-19T21:37:37.140Z,14.10
2019-05-19T21:40:14.365Z,14.10
2019-05-19T21:42:50.038Z,14.10
2019-05-19T21:45:24.225Z,14.10
2019-05-19T21:47:57.624Z,14.10
2019-05-19T21:50:38.910Z,14.00
2019-05-19T21:53:09.536Z,14.00
2019-05-19T21:55:38.042Z,14.00
2019-05-19T21:58:06.485Z,14.00
2019-05-19T22:00:35.376Z,14.00
2019-05-19T22:03:03.821Z,14.00
2019-05-19T22:05:32.326Z,14.00
2019-05-19T22:08:04.347Z,14.00
2019-05-19T22:10:32.977Z,14.00
2019-05-19T22:13:01.417Z,13.90
2019-05-19T22:15:30.297Z,13.90
2019-05-19T22:17:58.725Z,13.90
2019-05-19T22:20:27.237Z,13.80
2019-05-19T22:22:55.658Z,13.90
2019-05-19T22:25:24.152Z,13.80
2019-05-19T22:27:52.656Z,13.70
2019-05-19T22:30:21.188Z,13.70
2019-05-19T22:32:49.629Z,13.70
2019-05-19T22:35:18.125Z,13.70
2019-05-19T22:37:46.556Z,13.70
2019-05-19T22:40:15.396Z,13.70
2019-05-19T22:42:43.885Z,13.70
2019-05-19T22:45:12.514Z,13.70
2019-05-19T22:47:40.993Z,13.60
2019-05-19T22:50:09.518Z,13.60
2019-05-19T22:52:37.902Z,13.60
2019-05-19T22:55:06.593Z,13.60
2019-05-19T22:57:35.094Z,13.60
2019-05-19T23:00:03.955Z,13.60
2019-05-19T23:02:32.495Z,13.60
2019-05-19T23:05:00.933Z,13.60
2019-05-19T23:07:29.981Z,13.60
2019-05-19T23:09:58.399Z,13.60
2019-05-19T23:12:26.897Z,13.60
2019-05-19T23:14:55.321Z,13.60
2019-05-19T23:17:23.837Z,13.60
2019-05-19T23:19:52.266Z,13.60
2019-05-19T23:22:20.752Z,13.60
2019-05-19T23:24:49.182Z,13.60
2019-05-19T23:27:17.673Z,13.60
2019-05-19T23:29:46.186Z,13.60
2019-05-19T23:32:14.666Z,13.60
2019-05-19T23:34:43.094Z,13.60
2019-05-19T23:37:11.607Z,13.60
2019-05-19T23:39:40.038Z,13.60
2019-05-19T23:42:08.528Z,13.60
2019-05-19T23:44:36.965Z,13.60
2019-05-19T23:47:05.440Z,13.60
2019-05-19T23:49:33.877Z,13.60
2019-05-19T23:52:03.339Z,13.60
2019-05-19T23:54:32.026Z,13.70
2019-05-19T23:57:00.509Z,13.80
2019-05-19T23:59:28.951Z,13.80
